Time;durP1;ratioP1;P1;durP2;ratioP2;P2;SDS_P1;SDS_P2;PMS_P1;PMS_P2;Temp;Humidity;BMP_temperature;BMP_pressure;BME280_temperature;BME280_humidity;BME280_pressure;Samples;Min_cycle;Max_cycle;Signal;HPM_P1;HPM_P2
2022/09/12 00:00:53;;;;;;;4.57;3.40;;;;;;;;;;5054084;27;87031;-50
2022/09/12 00:03:22;;;;;;;4.10;3.50;;;;;;;;;;5060102;27;89324;-51
2022/09/12 00:05:51;;;;;;;6.37;3.70;;;;;;;;;;5052157;27;87582;-50
2022/09/12 00:08:19;;;;;;;5.67;4.07;;;;;;;;;;5042831;27;86981;-50
2022/09/12 00:10:47;;;;;;;3.47;3.13;;;;;;;;;;5049535;27;86932;-50
2022/09/12 00:13:15;;;;;;;4.57;3.30;;;;;;;;;;5054878;27;88618;-50
2022/09/12 00:15:44;;;;;;;3.50;2.73;;;;;;;;;;5042231;27;89961;-50
2022/09/12 00:18:14;;;;;;;3.20;2.90;;;;;;;;;;5041371;28;87031;-50
2022/09/12 00:20:43;;;;;;;4.50;3.40;;;;;;;;;;5046579;27;86968;-51
2022/09/12 00:23:12;;;;;;;3.93;3.37;;;;;;;;;;5041362;28;88972;-51
2022/09/12 00:25:43;;;;;;;4.70;3.37;;;;;;;;;;5042629;27;87944;-51
2022/09/12 00:28:11;;;;;;;3.90;2.77;;;;;;;;;;5026451;27;87049;-50
2022/09/12 00:30:43;;;;;;;5.70;3.00;;;;;;;;;;5050302;27;86257;-50
2022/09/12 00:33:11;;;;;;;3.47;2.93;;;;;;;;;;5059257;27;87875;-51
2022/09/12 00:35:44;;;;;;;3.57;2.57;;;;;;;;;;5043909;27;87548;-50
2022/09/12 00:38:12;;;;;;;3.37;3.07;;;;;;;;;;5044854;27;87936;-51
2022/09/12 00:40:41;;;;;;;3.30;2.70;;;;;;;;;;5042328;27;88971;-50
2022/09/12 00:43:11;;;;;;;4.00;2.77;;;;;;;;;;5039997;27;89206;-50
2022/09/12 00:45:41;;;;;;;3.73;2.37;;;;;;;;;;5040376;27;88608;-50
2022/09/12 00:48:14;;;;;;;4.13;3.00;;;;;;;;;;5040994;27;87034;-51
2022/09/12 00:50:44;;;;;;;3.07;2.33;;;;;;;;;;5055623;27;87057;-50
2022/09/12 00:53:12;;;;;;;3.13;2.20;;;;;;;;;;5057566;27;88999;-50
2022/09/12 00:55:41;;;;;;;3.77;2.83;;;;;;;;;;5064136;27;88587;-50
2022/09/12 00:58:09;;;;;;;4.37;2.30;;;;;;;;;;5061873;27;86802;-50
2022/09/12 01:00:38;;;;;;;3.90;2.80;;;;;;;;;;5063375;27;86984;-50
2022/09/12 01:03:06;;;;;;;3.07;2.73;;;;;;;;;;5062333;27;88628;-50
2022/09/12 01:05:35;;;;;;;4.17;2.80;;;;;;;;;;5062291;27;87531;-50
2022/09/12 01:08:05;;;;;;;3.43;2.40;;;;;;;;;;5045113;27;88344;-50
2022/09/12 01:10:33;;;;;;;3.87;2.33;;;;;;;;;;5060992;27;87222;-50
2022/09/12 01:13:02;;;;;;;5.23;2.67;;;;;;;;;;5064838;27;88808;-50
2022/09/12 01:15:30;;;;;;;3.50;2.33;;;;;;;;;;5062494;27;88829;-50
2022/09/12 01:18:03;;;;;;;2.40;2.20;;;;;;;;;;5058199;27;86867;-51
2022/09/12 01:20:37;;;;;;;3.43;2.47;;;;;;;;;;5063239;27;86285;-50
2022/09/12 01:23:24;;;;;;;4.37;2.30;;;;;;;;;;5033474;27;89055;-50
2022/09/12 01:25:59;;;;;;;3.63;2.13;;;;;;;;;;5057949;27;87567;-50
2022/09/12 01:28:32;;;;;;;2.07;1.77;;;;;;;;;;5049172;27;88030;-50
2022/09/12 01:31:01;;;;;;;2.13;1.90;;;;;;;;;;5062410;27;87011;-50
2022/09/12 01:33:33;;;;;;;1.93;1.43;;;;;;;;;;5062392;27;87026;-50
2022/09/12 01:36:05;;;;;;;3.83;2.77;;;;;;;;;;5062786;27;88879;-50
2022/09/12 01:38:35;;;;;;;2.20;1.83;;;;;;;;;;5044235;27;87127;-51
2022/09/12 01:41:10;;;;;;;3.03;1.87;;;;;;;;;;5044716;27;87016;-50
2022/09/12 01:43:40;;;;;;;2.90;1.70;;;;;;;;;;5038772;28;89034;-50
2022/09/12 01:46:12;;;;;;;3.03;2.37;;;;;;;;;;5046845;27;87758;-50
2022/09/12 01:48:42;;;;;;;3.00;2.23;;;;;;;;;;5039790;28;86897;-50
2022/09/12 01:51:12;;;;;;;2.37;1.80;;;;;;;;;;5044286;27;87987;-50
2022/09/12 01:53:42;;;;;;;3.10;2.13;;;;;;;;;;5040051;27;88747;-50
2022/09/12 01:56:12;;;;;;;2.43;2.23;;;;;;;;;;5044398;27;88444;-50
2022/09/12 01:58:41;;;;;;;2.30;2.10;;;;;;;;;;5041147;27;87067;-50
2022/09/12 02:01:14;;;;;;;2.37;1.57;;;;;;;;;;5041848;27;87431;-50
2022/09/12 02:03:44;;;;;;;3.73;2.23;;;;;;;;;;5043696;27;89123;-50
2022/09/12 02:06:13;;;;;;;3.03;2.10;;;;;;;;;;5040138;27;88984;-50
2022/09/12 02:08:43;;;;;;;2.03;1.77;;;;;;;;;;5044563;27;88209;-51
2022/09/12 02:11:11;;;;;;;3.20;2.20;;;;;;;;;;5041823;28;87603;-50
2022/09/12 02:13:40;;;;;;;4.73;2.87;;;;;;;;;;5039159;28;88074;-50
2022/09/12 02:16:10;;;;;;;3.10;2.43;;;;;;;;;;5041826;28;88770;-51
2022/09/12 02:18:40;;;;;;;4.67;2.60;;;;;;;;;;5041535;27;88010;-51
2022/09/12 02:21:08;;;;;;;4.67;2.83;;;;;;;;;;5039986;28;87198;-51
2022/09/12 02:23:37;;;;;;;4.57;3.10;;;;;;;;;;5038280;28;88909;-50
2022/09/12 02:26:06;;;;;;;6.47;3.50;;;;;;;;;;5041120;28;88760;-51
2022/09/12 02:28:35;;;;;;;6.63;3.60;;;;;;;;;;5043853;27;87095;-51
2022/09/12 02:31:07;;;;;;;4.27;3.03;;;;;;;;;;5041516;28;87005;-50
2022/09/12 02:33:37;;;;;;;7.23;4.03;;;;;;;;;;5039436;28;89467;-50
2022/09/12 02:36:12;;;;;;;7.97;4.50;;;;;;;;;;5039573;28;88845;-50
2022/09/12 02:38:41;;;;;;;8.83;4.83;;;;;;;;;;5039663;28;86999;-50
2022/09/12 02:41:10;;;;;;;10.23;5.37;;;;;;;;;;5044561;27;87048;-50
2022/09/12 02:43:39;;;;;;;9.67;5.57;;;;;;;;;;5037812;28;90099;-50
2022/09/12 02:46:08;;;;;;;10.47;5.97;;;;;;;;;;5040859;28;88761;-50
2022/09/12 02:48:36;;;;;;;15.77;7.10;;;;;;;;;;5042248;27;86986;-50
2022/09/12 02:51:05;;;;;;;16.30;7.87;;;;;;;;;;5042207;27;86957;-50
2022/09/12 02:53:34;;;;;;;16.47;7.90;;;;;;;;;;5042352;27;89090;-51
2022/09/12 02:56:03;;;;;;;22.10;10.10;;;;;;;;;;5041020;28;87596;-50
2022/09/12 02:58:31;;;;;;;19.63;10.63;;;;;;;;;;5041972;28;86903;-50
2022/09/12 03:01:01;;;;;;;13.87;8.57;;;;;;;;;;5043566;27;86250;-50
2022/09/12 03:03:34;;;;;;;18.47;9.03;;;;;;;;;;5041664;28;88976;-51
2022/09/12 03:06:08;;;;;;;25.60;10.77;;;;;;;;;;5042415;27;88989;-50
2022/09/12 03:08:45;;;;;;;22.80;10.47;;;;;;;;;;5050485;27;87919;-50
2022/09/12 03:11:17;;;;;;;21.33;10.67;;;;;;;;;;5058763;27;87721;-50
2022/09/12 03:13:49;;;;;;;25.07;11.43;;;;;;;;;;5041454;28;89007;-50
2022/09/12 03:16:18;;;;;;;24.67;13.10;;;;;;;;;;5042144;27;88663;-50
2022/09/12 03:18:51;;;;;;;31.53;15.13;;;;;;;;;;5051821;27;87036;-50
2022/09/12 03:21:21;;;;;;;27.33;14.07;;;;;;;;;;5059293;27;87102;-50
2022/09/12 03:23:54;;;;;;;29.33;14.53;;;;;;;;;;5040809;28;89067;-50
2022/09/12 03:26:24;;;;;;;31.13;14.90;;;;;;;;;;5042288;28;87644;-50
2022/09/12 03:28:52;;;;;;;30.83;14.93;;;;;;;;;;5052083;27;87040;-50
2022/09/12 03:31:20;;;;;;;29.30;15.93;;;;;;;;;;5058842;27;88716;-50
2022/09/12 03:33:49;;;;;;;33.73;17.17;;;;;;;;;;5042014;27;89971;-50
2022/09/12 03:36:17;;;;;;;33.47;16.87;;;;;;;;;;5040970;28;88563;-50
2022/09/12 03:38:45;;;;;;;32.27;16.33;;;;;;;;;;5057751;27;87864;-50
2022/09/12 03:41:15;;;;;;;26.60;15.10;;;;;;;;;;5059136;27;87051;-50
2022/09/12 03:43:44;;;;;;;33.57;16.73;;;;;;;;;;5061018;27;89046;-50
2022/09/12 03:46:13;;;;;;;37.50;16.67;;;;;;;;;;5061982;27;87034;-50
2022/09/12 03:48:41;;;;;;;38.17;17.03;;;;;;;;;;5045238;27;86980;-50
2022/09/12 03:51:11;;;;;;;33.57;17.57;;;;;;;;;;5042327;27;87034;-50
2022/09/12 03:53:39;;;;;;;35.57;17.53;;;;;;;;;;5039062;28;89187;-51
2022/09/12 03:56:07;;;;;;;40.73;16.77;;;;;;;;;;5041293;28;88791;-50
2022/09/12 03:58:37;;;;;;;37.70;19.60;;;;;;;;;;5041096;28;87906;-50
2022/09/12 04:01:11;;;;;;;39.13;17.23;;;;;;;;;;5041088;27;86981;-50
2022/09/12 04:03:40;;;;;;;32.10;17.17;;;;;;;;;;5060441;27;87927;-50
2022/09/12 04:06:08;;;;;;;34.83;17.43;;;;;;;;;;5061178;27;88736;-50
2022/09/12 04:08:37;;;;;;;33.63;17.10;;;;;;;;;;5041679;27;86987;-50
2022/09/12 04:11:05;;;;;;;36.40;16.43;;;;;;;;;;5040743;27;87015;-50
2022/09/12 04:13:33;;;;;;;40.27;18.20;;;;;;;;;;5059225;27;88903;-50
2022/09/12 04:16:03;;;;;;;31.97;17.77;;;;;;;;;;5060377;27;87727;-50
2022/09/12 04:18:31;;;;;;;36.77;17.20;;;;;;;;;;5042208;27;86882;-50
2022/09/12 04:21:00;;;;;;;34.23;17.57;;;;;;;;;;5040901;28;86978;-50
2022/09/12 04:23:28;;;;;;;38.57;17.63;;;;;;;;;;5040884;27;89795;-51
2022/09/12 04:25:56;;;;;;;33.80;18.27;;;;;;;;;;5040448;28;88584;-50
2022/09/12 04:28:24;;;;;;;32.60;18.70;;;;;;;;;;5041705;27;86897;-50
2022/09/12 04:30:53;;;;;;;38.03;18.73;;;;;;;;;;5044633;28;86988;-50
2022/09/12 04:33:22;;;;;;;32.93;16.47;;;;;;;;;;5061970;27;89155;-51
2022/09/12 04:35:51;;;;;;;33.10;17.67;;;;;;;;;;5064308;27;88687;-50
2022/09/12 04:38:19;;;;;;;32.20;18.03;;;;;;;;;;5046912;27;86878;-50
2022/09/12 04:40:47;;;;;;;33.60;17.40;;;;;;;;;;5044337;28;86202;-51
2022/09/12 04:43:15;;;;;;;36.60;18.07;;;;;;;;;;5044513;27;89232;-51
2022/09/12 04:45:44;;;;;;;28.63;15.70;;;;;;;;;;5043715;28;88808;-50
2022/09/12 04:48:12;;;;;;;31.20;16.30;;;;;;;;;;5043912;27;87790;-50
2022/09/12 04:50:42;;;;;;;27.73;15.83;;;;;;;;;;5044146;28;86907;-50
2022/09/12 04:53:10;;;;;;;25.57;14.33;;;;;;;;;;5047327;27;89177;-50
2022/09/12 04:55:38;;;;;;;28.20;15.30;;;;;;;;;;5043504;28;88989;-51
2022/09/12 04:58:06;;;;;;;26.57;14.43;;;;;;;;;;5043660;28;86920;-50
2022/09/12 05:00:35;;;;;;;28.23;15.53;;;;;;;;;;5043946;28;86988;-50
2022/09/12 05:03:03;;;;;;;30.43;15.50;;;;;;;;;;5055612;27;88013;-51
2022/09/12 05:05:31;;;;;;;30.10;14.73;;;;;;;;;;5063937;27;87729;-50
2022/09/12 05:08:01;;;;;;;26.07;13.97;;;;;;;;;;5051454;27;87096;-50
2022/09/12 05:10:30;;;;;;;28.13;14.60;;;;;;;;;;5043732;28;87037;-50
2022/09/12 05:12:58;;;;;;;29.37;14.50;;;;;;;;;;5042403;27;89898;-50
2022/09/12 05:15:26;;;;;;;27.13;14.60;;;;;;;;;;5043377;28;89891;-50
2022/09/12 05:17:54;;;;;;;24.87;12.77;;;;;;;;;;5043910;28;86929;-51
2022/09/12 05:20:22;;;;;;;22.30;11.90;;;;;;;;;;5043120;28;86941;-51
2022/09/12 05:22:51;;;;;;;20.37;11.27;;;;;;;;;;5039383;27;88905;-51
2022/09/12 05:25:20;;;;;;;24.63;12.50;;;;;;;;;;5043186;28;88782;-50
2022/09/12 05:27:49;;;;;;;20.73;11.30;;;;;;;;;;5043705;28;87609;-50
2022/09/12 05:30:17;;;;;;;21.17;11.17;;;;;;;;;;5046035;27;86371;-50
2022/09/12 05:32:46;;;;;;;20.23;10.73;;;;;;;;;;5053413;27;88959;-50
2022/09/12 05:35:14;;;;;;;19.13;11.10;;;;;;;;;;5055852;27;88443;-50
2022/09/12 05:37:43;;;;;;;23.53;11.10;;;;;;;;;;5061695;27;87927;-50
2022/09/12 05:40:14;;;;;;;24.03;12.00;;;;;;;;;;5062398;27;86792;-50
2022/09/12 05:42:44;;;;;;;21.60;9.30;;;;;;;;;;5062371;27;89234;-50
2022/09/12 05:45:13;;;;;;;18.43;9.83;;;;;;;;;;5051463;27;88735;-50
2022/09/12 05:47:42;;;;;;;15.10;8.13;;;;;;;;;;5043841;28;86975;-50
2022/09/12 05:50:11;;;;;;;15.40;9.33;;;;;;;;;;5043340;28;86769;-50
2022/09/12 05:52:39;;;;;;;15.77;9.43;;;;;;;;;;5044475;27;88853;-50
2022/09/12 05:55:07;;;;;;;16.07;10.37;;;;;;;;;;5044175;27;88651;-50
2022/09/12 05:57:36;;;;;;;17.07;8.63;;;;;;;;;;5043925;27;87172;-50
2022/09/12 06:00:08;;;;;;;14.73;8.00;;;;;;;;;;5043242;28;87048;-51
2022/09/12 06:02:36;;;;;;;14.77;8.50;;;;;;;;;;5047058;27;88780;-50
2022/09/12 06:05:05;;;;;;;15.43;8.70;;;;;;;;;;5061836;27;87897;-50
2022/09/12 06:07:34;;;;;;;16.30;7.93;;;;;;;;;;5061260;27;87023;-50
2022/09/12 06:10:04;;;;;;;12.40;8.47;;;;;;;;;;5051089;27;86972;-50
2022/09/12 06:12:32;;;;;;;15.13;7.83;;;;;;;;;;5063047;27;88008;-50
2022/09/12 06:15:00;;;;;;;13.03;7.80;;;;;;;;;;5056431;27;88649;-50
2022/09/12 06:17:30;;;;;;;10.30;7.00;;;;;;;;;;5044191;27;88645;-50
2022/09/12 06:19:58;;;;;;;13.17;7.43;;;;;;;;;;5043660;27;86260;-50
2022/09/12 06:22:26;;;;;;;15.30;7.53;;;;;;;;;;5042380;28;87771;-50
2022/09/12 06:24:55;;;;;;;12.60;7.90;;;;;;;;;;5055876;27;88801;-50
2022/09/12 06:27:25;;;;;;;11.97;6.13;;;;;;;;;;5043211;28;88136;-50
2022/09/12 06:29:53;;;;;;;9.83;6.03;;;;;;;;;;5043662;28;86926;-50
2022/09/12 06:32:22;;;;;;;9.37;6.67;;;;;;;;;;5038423;28;89064;-50
2022/09/12 06:34:51;;;;;;;12.47;6.20;;;;;;;;;;5054712;27;87577;-50
2022/09/12 06:37:20;;;;;;;12.20;6.70;;;;;;;;;;5042380;28;86901;-51
2022/09/12 06:39:48;;;;;;;8.87;5.13;;;;;;;;;;5054595;27;87300;-50
2022/09/12 06:42:18;;;;;;;8.87;4.77;;;;;;;;;;5048566;27;88951;-50
2022/09/12 06:44:47;;;;;;;8.77;5.20;;;;;;;;;;5046876;27;88910;-51
2022/09/12 06:47:15;;;;;;;9.37;5.37;;;;;;;;;;5047131;27;87014;-51
2022/09/12 06:49:43;;;;;;;8.70;4.53;;;;;;;;;;5044098;27;87038;-50
2022/09/12 06:52:13;;;;;;;8.40;5.00;;;;;;;;;;5042344;27;90088;-51
2022/09/12 06:54:42;;;;;;;7.00;5.33;;;;;;;;;;5042712;27;88314;-51
2022/09/12 06:57:10;;;;;;;4.93;3.57;;;;;;;;;;5025043;28;87024;-51
2022/09/12 06:59:38;;;;;;;6.73;3.90;;;;;;;;;;5026141;27;86938;-51
2022/09/12 07:02:07;;;;;;;6.50;3.70;;;;;;;;;;5059601;27;88986;-51
2022/09/12 07:04:36;;;;;;;5.77;3.83;;;;;;;;;;5031647;27;90689;-51
2022/09/12 07:07:04;;;;;;;6.10;3.50;;;;;;;;;;5029352;27;87305;-51
2022/09/12 07:09:34;;;;;;;5.40;2.93;;;;;;;;;;5032222;27;86630;-51
2022/09/12 07:12:03;;;;;;;5.23;3.00;;;;;;;;;;5034480;28;87658;-51
2022/09/12 07:14:31;;;;;;;4.00;2.67;;;;;;;;;;5027045;27;86993;-51
2022/09/12 07:16:59;;;;;;;3.57;2.30;;;;;;;;;;5062669;27;87680;-51
2022/09/12 07:19:28;;;;;;;2.10;1.80;;;;;;;;;;5030274;27;87143;-51
2022/09/12 07:21:56;;;;;;;4.40;2.10;;;;;;;;;;5061067;27;89165;-50
2022/09/12 07:24:26;;;;;;;3.00;2.37;;;;;;;;;;5043733;27;87688;-51
2022/09/12 07:26:56;;;;;;;3.80;2.33;;;;;;;;;;5042428;28;87097;-51
2022/09/12 07:29:24;;;;;;;3.47;2.30;;;;;;;;;;5042632;28;86939;-51
2022/09/12 07:32:05;;;;;;;2.23;1.53;;;;;;;;;;5042183;27;87991;-51
2022/09/12 07:34:34;;;;;;;3.40;1.80;;;;;;;;;;5056853;27;88915;-50
2022/09/12 07:37:02;;;;;;;2.83;2.03;;;;;;;;;;5062610;27;87102;-51
2022/09/12 07:39:31;;;;;;;3.90;2.03;;;;;;;;;;5045149;27;87152;-50
2022/09/12 07:42:01;;;;;;;1.77;1.57;;;;;;;;;;5041167;27;89207;-50
2022/09/12 07:44:29;;;;;;;4.00;1.57;;;;;;;;;;5050679;27;89717;-50
2022/09/12 07:46:57;;;;;;;1.67;1.37;;;;;;;;;;5059049;27;88277;-50
2022/09/12 07:49:25;;;;;;;2.83;1.77;;;;;;;;;;5062432;27;86908;-50
2022/09/12 07:51:54;;;;;;;1.90;1.70;;;;;;;;;;5060643;27;88857;-50
2022/09/12 07:54:22;;;;;;;3.20;1.60;;;;;;;;;;5061176;27;88778;-51
2022/09/12 07:56:50;;;;;;;3.67;1.50;;;;;;;;;;5060861;27;86912;-50
2022/09/12 07:59:20;;;;;;;2.00;1.27;;;;;;;;;;5046679;27;86306;-50
2022/09/12 08:02:12;;;;;;;1.90;1.50;;;;;;;;;;5030550;27;87672;-50
2022/09/12 08:04:44;;;;;;;2.37;1.37;;;;;;;;;;5040998;28;88804;-52
2022/09/12 08:07:13;;;;;;;2.60;1.83;;;;;;;;;;5055378;27;89024;-51
2022/09/12 08:09:41;;;;;;;2.63;1.67;;;;;;;;;;5062494;27;86842;-51
2022/09/12 08:12:09;;;;;;;3.63;2.00;;;;;;;;;;5061652;27;87927;-51
2022/09/12 08:14:39;;;;;;;2.07;1.87;;;;;;;;;;5061726;27;88682;-51
2022/09/12 08:17:07;;;;;;;2.67;1.77;;;;;;;;;;5044466;27;86814;-51
2022/09/12 08:19:35;;;;;;;2.93;1.40;;;;;;;;;;5041643;28;86794;-51
2022/09/12 08:22:04;;;;;;;3.07;1.60;;;;;;;;;;5041799;28;89177;-52
2022/09/12 08:24:32;;;;;;;2.13;1.33;;;;;;;;;;5041732;28;88902;-52
2022/09/12 08:27:00;;;;;;;2.53;1.70;;;;;;;;;;5041471;27;86972;-51
2022/09/12 08:29:29;;;;;;;1.70;1.50;;;;;;;;;;5041684;28;87048;-51
2022/09/12 08:31:58;;;;;;;1.87;1.57;;;;;;;;;;5040632;27;89811;-51
2022/09/12 08:34:27;;;;;;;4.07;1.33;;;;;;;;;;5041376;27;89828;-51
2022/09/12 08:36:55;;;;;;;2.50;1.30;;;;;;;;;;5041220;27;86999;-51
2022/09/12 08:39:24;;;;;;;1.63;1.23;;;;;;;;;;5041146;28;86961;-51
2022/09/12 08:41:56;;;;;;;2.57;1.43;;;;;;;;;;5040654;27;88800;-51
2022/09/12 08:44:49;;;;;;;1.20;0.83;;;;;;;;;;5040476;28;87598;-49
2022/09/12 08:47:21;;;;;;;1.37;1.07;;;;;;;;;;5031077;27;86998;-49
2022/09/12 08:49:51;;;;;;;1.73;1.10;;;;;;;;;;5040127;27;86340;-49
2022/09/12 08:52:24;;;;;;;1.40;1.03;;;;;;;;;;5029803;27;88266;-49
2022/09/12 08:54:54;;;;;;;2.20;1.03;;;;;;;;;;5040279;28;88654;-49
2022/09/12 08:57:22;;;;;;;4.37;1.60;;;;;;;;;;5040435;28;87971;-49
2022/09/12 08:59:51;;;;;;;1.67;1.23;;;;;;;;;;5040740;28;86862;-49
2022/09/12 09:02:28;;;;;;;1.73;1.40;;;;;;;;;;5040501;28;88877;-49
2022/09/12 09:04:57;;;;;;;2.73;1.63;;;;;;;;;;5040921;28;88879;-51
2022/09/12 09:07:35;;;;;;;1.27;1.03;;;;;;;;;;5041152;28;87064;-49
2022/09/12 09:10:09;;;;;;;3.40;1.10;;;;;;;;;;5060714;27;87112;-49
2022/09/12 09:12:39;;;;;;;4.37;1.60;;;;;;;;;;5041249;27;89081;-49
2022/09/12 09:15:21;;;;;;;3.80;1.13;;;;;;;;;;5060880;27;88748;-49
2022/09/12 09:17:51;;;;;;;2.33;1.10;;;;;;;;;;5057169;27;86794;-51
2022/09/12 09:20:22;;;;;;;1.63;1.20;;;;;;;;;;5044733;28;86988;-50
2022/09/12 09:22:51;;;;;;;1.67;1.00;;;;;;;;;;5043784;28;88962;-54
2022/09/12 09:25:21;;;;;;;2.07;1.20;;;;;;;;;;5043945;28;89654;-59
2022/09/12 09:27:51;;;;;;;1.23;1.10;;;;;;;;;;5044357;28;87042;-57
2022/09/12 09:30:20;;;;;;;1.10;0.93;;;;;;;;;;5043429;28;87041;-48
2022/09/12 09:32:52;;;;;;;1.20;1.10;;;;;;;;;;5043935;28;88789;-48
2022/09/12 09:35:23;;;;;;;1.20;1.10;;;;;;;;;;5043926;28;87539;-48
2022/09/12 09:37:56;;;;;;;3.47;1.03;;;;;;;;;;5044429;28;86735;-48
2022/09/12 09:40:27;;;;;;;1.90;1.17;;;;;;;;;;5044616;28;86252;-48
2022/09/12 09:42:57;;;;;;;2.67;1.30;;;;;;;;;;5043078;28;88874;-48
2022/09/12 09:45:28;;;;;;;2.90;1.53;;;;;;;;;;5043788;28;87581;-48
2022/09/12 09:47:59;;;;;;;2.63;1.17;;;;;;;;;;5043964;28;87763;-48
2022/09/12 09:50:27;;;;;;;2.17;1.13;;;;;;;;;;5044320;28;87071;-48
2022/09/12 09:52:55;;;;;;;2.57;1.70;;;;;;;;;;5043239;28;88082;-48
2022/09/12 09:55:24;;;;;;;1.30;1.10;;;;;;;;;;5043094;28;87545;-47
2022/09/12 09:57:52;;;;;;;1.43;1.20;;;;;;;;;;5043846;27;87094;-47
2022/09/12 10:00:25;;;;;;;2.00;1.20;;;;;;;;;;5043500;27;86995;-48
2022/09/12 10:03:12;;;;;;;0.90;0.90;;;;;;;;;;5043236;27;87026;-48
2022/09/12 10:05:46;;;;;;;3.53;1.73;;;;;;;;;;5037248;27;88843;-48
2022/09/12 10:08:20;;;;;;;1.90;0.97;;;;;;;;;;5064138;27;87330;-48
2022/09/12 10:10:56;;;;;;;1.03;0.90;;;;;;;;;;5064489;27;87186;-48
2022/09/12 10:13:34;;;;;;;2.93;1.43;;;;;;;;;;5063496;27;89779;-48
2022/09/12 10:16:04;;;;;;;1.37;1.20;;;;;;;;;;5063625;27;89790;-49
2022/09/12 10:18:39;;;;;;;2.03;1.17;;;;;;;;;;5038162;27;86958;-48
2022/09/12 10:21:23;;;;;;;1.30;0.83;;;;;;;;;;5026922;28;86972;-48
2022/09/12 10:23:53;;;;;;;3.27;1.20;;;;;;;;;;5041710;27;87893;-48
2022/09/12 10:26:22;;;;;;;1.20;0.80;;;;;;;;;;5042487;28;87869;-48
2022/09/12 10:28:52;;;;;;;3.87;1.03;;;;;;;;;;5043402;28;86920;-48
2022/09/12 10:31:27;;;;;;;1.13;0.77;;;;;;;;;;5043481;28;86308;-49
2022/09/12 10:33:56;;;;;;;1.47;1.10;;;27.20;86.30;;;;;;5041335;28;89177;-49
2022/09/12 10:36:24;;;;;;;3.20;1.42;;;27.20;49.70;;;;;;5041231;28;87817;-55
2022/09/12 10:38:55;;;;;;;2.30;1.03;;;27.40;52.40;;;;;;5042388;27;88146;-47
2022/09/12 10:41:23;;;;;;;3.07;0.90;;;27.50;49.00;;;;;;5042276;28;87003;-48
2022/09/12 10:43:51;;;;;;;1.90;1.10;;;27.60;61.70;;;;;;5041832;28;87896;-49
2022/09/12 10:46:29;;;;;;;1.27;1.13;;;27.50;66.10;;;;;;5042661;28;87743;-47
2022/09/12 10:49:13;;;;;;;1.03;0.80;;;;;;;;;;5043256;27;87011;-50
2022/09/12 10:51:41;;;;;;;0.97;0.87;;;27.70;48.90;;;;;;5043097;28;86958;-51
2022/09/12 10:54:11;;;;;;;1.37;1.07;;;;;;;;;;5046900;27;87674;-50
2022/09/12 10:56:42;;;;;;;0.90;0.90;;;27.60;48.80;;;;;;5062982;27;87729;-52
2022/09/12 10:59:14;;;;;;;3.23;1.07;;;;;;;;;;5063385;27;87091;-51
2022/09/12 11:01:48;;;;;;;2.20;1.40;;;27.60;48.90;;;;;;5063486;27;86863;-51
2022/09/12 11:04:23;;;;;;;1.30;1.10;;;27.60;49.60;;;;;;5062616;27;90183;-52
2022/09/12 11:07:12;;;;;;;2.13;1.10;;;27.60;49.70;;;;;;5052360;27;89853;-52
2022/09/12 11:09:43;;;;;;;3.63;0.83;;;27.60;49.90;;;;;;5042073;27;88337;-52
2022/09/12 11:12:15;;;;;;;1.47;0.93;;;27.60;50.00;;;;;;5042430;28;87101;-48
2022/09/12 11:14:56;;;;;;;4.40;1.17;;;27.60;50.70;;;;;;5042520;28;88011;-50
2022/09/12 11:17:28;;;;;;;2.23;0.97;;;27.60;50.10;;;;;;5040416;28;88855;-48
2022/09/12 11:20:39;;;;;;;1.17;0.80;;;27.60;50.00;;;;;;5031688;28;87058;-50
2022/09/12 11:23:23;;;;;;;1.13;1.03;;;27.60;50.10;;;;;;5008893;28;86524;-49
2022/09/12 11:25:53;;;;;;;2.37;1.07;;;;;;;;;;5037855;28;88159;-50
2022/09/12 11:28:35;;;;;;;0.67;0.63;;;27.60;49.80;;;;;;5040343;28;88840;-50
2022/09/12 11:31:16;;;;;;;1.63;1.10;;;27.50;50.30;;;;;;5036188;27;88147;-50
2022/09/12 11:33:45;;;;;;;1.80;0.77;;;;;;;;;;5033620;28;87036;-49
2022/09/12 11:36:23;;;;;;;0.70;0.70;;;27.60;49.10;;;;;;5040708;28;88148;-49
2022/09/12 11:39:01;;;;;;;1.27;0.90;;;27.60;49.60;;;;;;5039360;28;88454;-51
2022/09/12 11:41:32;;;;;;;4.10;0.93;;;27.60;49.60;;;;;;5040661;28;87012;-49
2022/09/12 11:44:03;;;;;;;1.60;1.10;;;27.70;49.60;;;;;;5040477;27;86923;-51
2022/09/12 11:46:33;;;;;;;7.50;1.67;;;27.80;49.60;;;;;;5041764;27;88893;-49
2022/09/12 11:49:04;;;;;;;4.47;1.70;;;27.80;49.70;;;;;;5041930;28;88634;-50
2022/09/12 11:51:34;;;;;;;5.97;2.17;;;27.90;49.80;;;;;;5042188;27;87014;-51
2022/09/12 11:54:05;;;;;;;4.63;2.60;;;28.00;49.90;;;;;;5041705;27;87030;-50
2022/09/12 11:56:35;;;;;;;13.67;2.80;;;28.10;50.00;;;;;;5041472;27;88901;-50
2022/09/12 11:59:04;;;;;;;6.40;1.70;;;28.10;50.10;;;;;;5042211;27;87014;-50
2022/09/12 12:01:34;;;;;;;6.83;1.37;;;28.10;50.10;;;;;;5042200;27;86750;-50
2022/09/12 12:04:11;;;;;;;3.53;1.23;;;28.10;50.00;;;;;;5041561;27;86890;-49
2022/09/12 12:06:46;;;;;;;2.43;1.37;;;28.10;50.00;;;;;;5041169;27;86839;-51
2022/09/12 12:09:15;;;;;;;0.87;0.87;;;28.10;50.00;;;;;;5041409;27;87598;-47
2022/09/12 12:11:47;;;;;;;3.00;1.20;;;28.10;50.00;;;;;;5041008;27;86892;-47
2022/09/12 12:14:17;;;;;;;1.10;0.90;;;28.10;49.90;;;;;;5042025;28;86134;-47
2022/09/12 12:16:45;;;;;;;1.30;1.10;;;28.10;50.00;;;;;;5041877;28;88853;-47
2022/09/12 12:19:28;;;;;;;1.13;0.67;;;28.10;50.00;;;;;;5041588;28;87692;-49
2022/09/12 12:21:56;;;;;;;0.60;0.60;;;28.00;50.00;;;;;;5041141;28;87927;-49
2022/09/12 12:24:24;;;;;;;4.80;0.90;;;28.10;50.00;;;;;;5042598;27;86861;-49
2022/09/12 12:26:58;;;;;;;1.33;1.10;;;28.10;50.10;;;;;;5041340;27;89192;-47
2022/09/12 12:29:40;;;;;;;0.53;0.50;;;28.10;50.20;;;;;;5040489;28;88927;-47
2022/09/12 12:32:24;;;;;;;4.70;0.83;;;28.10;50.50;;;;;;5041692;28;86753;-49
2022/09/12 12:35:02;;;;;;;0.80;0.80;;;28.10;50.90;;;;;;5041547;28;87059;-47
2022/09/12 12:37:50;;;;;;;0.93;0.80;;;28.10;51.60;;;;;;5040736;28;87720;-47
2022/09/12 12:40:24;;;;;;;2.10;0.80;;;28.10;53.60;;;;;;5041594;28;87562;-48
2022/09/12 12:43:30;;;;;;;1.20;0.73;;;28.10;54.50;;;;;;5041032;28;87030;-48
2022/09/12 12:46:05;;;;;;;1.33;0.63;;;28.10;54.50;;;;;;5038220;27;88028;-48
2022/09/12 12:48:49;;;;;;;1.50;0.77;;;28.10;54.40;;;;;;5040948;27;88907;-48
2022/09/12 12:51:37;;;;;;;1.20;0.80;;;28.10;54.30;;;;;;5036354;27;89534;-49
2022/09/12 12:54:07;;;;;;;0.70;0.70;;;28.10;54.50;;;;;;5045048;28;87066;-48
2022/09/12 12:56:40;;;;;;;1.90;0.83;;;28.20;54.80;;;;;;5044422;28;87259;-47
2022/09/12 12:59:17;;;;;;;0.90;0.90;;;28.20;55.00;;;;;;5044173;28;89024;-47
2022/09/12 13:01:48;;;;;;;1.00;1.00;;;28.20;55.20;;;;;;5044433;28;88914;-48
2022/09/12 13:04:22;;;;;;;1.03;0.60;;;28.20;55.60;;;;;;5044945;27;86937;-48
2022/09/12 13:06:57;;;;;;;0.60;0.60;;;28.20;55.80;;;;;;5045081;28;86228;-48
2022/09/12 13:09:26;;;;;;;1.23;0.80;;;28.20;55.50;;;;;;5044450;28;88798;-48
2022/09/12 13:11:57;;;;;;;0.70;0.57;;;28.20;55.60;;;;;;5044160;27;88579;-47
2022/09/12 13:14:37;;;;;;;2.20;0.83;;;28.20;55.60;;;;;;5044030;28;87812;-47
2022/09/12 13:17:07;;;;;;;0.47;0.47;;;28.20;55.50;;;;;;5044408;28;86912;-48
2022/09/12 13:19:36;;;;;;;1.27;0.77;;;28.20;55.60;;;;;;5043834;28;88927;-48
2022/09/12 13:22:05;;;;;;;0.70;0.57;;;28.30;55.20;;;;;;5043616;28;87374;-47
2022/09/12 13:24:33;;;;;;;2.13;0.73;;;28.30;54.90;;;;;;5043955;28;86780;-47
2022/09/12 13:27:01;;;;;;;0.60;0.60;;;28.30;54.80;;;;;;5044358;27;86944;-49
2022/09/12 13:29:30;;;;;;;0.80;0.60;;;28.30;55.30;;;;;;5043891;27;88900;-47
2022/09/12 13:31:59;;;;;;;1.80;0.60;;;28.30;54.60;;;;;;5044466;27;87809;-47
2022/09/12 13:34:30;;;;;;;1.00;0.83;;;28.40;54.60;;;;;;5044658;27;86877;-49
2022/09/12 13:37:15;;;;;;;1.27;0.77;;;28.30;54.60;;;;;;5044379;27;86987;-47
2022/09/12 13:39:47;;;;;;;0.97;0.83;;;28.40;54.50;;;;;;5043453;27;90069;-47
2022/09/12 13:42:42;;;;;;;4.00;0.80;;;28.40;54.60;;;;;;5043633;28;89752;-48
2022/09/12 13:45:13;;;;;;;0.60;0.60;;;28.30;54.60;;;;;;5007946;27;87227;-48
2022/09/12 13:47:43;;;;;;;2.17;0.60;;;28.40;54.80;;;;;;5044194;27;86859;-48
2022/09/12 13:50:17;;;;;;;0.50;0.50;;;28.40;54.80;;;;;;5043517;27;88937;-48
2022/09/12 13:52:48;;;;;;;1.23;0.93;;;28.40;54.90;;;;;;5043676;27;87569;-48
2022/09/12 13:55:23;;;;;;;1.33;0.80;;;28.50;55.10;;;;;;5043605;27;87107;-48
2022/09/12 13:57:56;;;;;;;1.00;0.87;;;28.50;55.20;;;;;;5044835;27;86257;-48
2022/09/12 14:00:24;;;;;;;0.70;0.70;;;28.50;55.30;;;;;;5043520;27;89214;-48
2022/09/12 14:05:06;;;;;;;1.47;1.00;;;28.50;55.50;;;;;;5042862;27;89068;-48
2022/09/12 14:05:43;;;;;;;0.50;0.50;;;28.50;55.40;;;;;;5042987;27;87991;-47
2022/09/12 14:08:13;;;;;;;1.17;0.77;;;28.50;55.60;;;;;;5043847;27;86988;-48
2022/09/12 14:10:42;;;;;;;1.07;0.97;;;28.50;55.80;;;;;;5044012;27;87769;-48
2022/09/12 14:13:11;;;;;;;0.80;0.80;;;28.50;55.90;;;;;;5041938;27;88699;-48
2022/09/12 14:15:39;;;;;;;1.73;0.90;;;28.50;56.10;;;;;;5042363;27;87107;-48
2022/09/12 14:18:08;;;;;;;1.10;0.80;;;28.50;56.30;;;;;;5043607;27;86686;-47
2022/09/12 14:20:36;;;;;;;0.60;0.60;;;28.50;56.40;;;;;;5043415;28;89060;-47
2022/09/12 14:23:07;;;;;;;1.07;0.97;;;28.60;56.60;;;;;;5043386;27;88723;-47
2022/09/12 14:25:37;;;;;;;0.83;0.77;;;28.60;56.60;;;;;;5043071;27;87014;-48